Time;durP1;ratioP1;P1;durP2;ratioP2;P2;SDS_P1;SDS_P2;PMS_P1;PMS_P2;Temp;Humidity;BMP_temperature;BMP_pressure;BME280_temperature;BME280_humidity;BME280_pressure;Samples;Min_cycle;Max_cycle;Signal;HPM_P1;HPM_P2
2023/12/18 00:02:19;;;;;;;5.30;5.00;;;10.70;99.90;;;;;;5066890;28;20048;-87
2023/12/18 00:04:45;;;;;;;5.22;4.93;;;10.70;99.90;;;;;;5085067;27;20051;-89
2023/12/18 00:07:11;;;;;;;4.25;4.05;;;10.70;99.90;;;;;;5083959;28;20041;-88
2023/12/18 00:09:38;;;;;;;4.30;4.10;;;10.70;99.90;;;;;;5067673;28;20055;-87
2023/12/18 00:12:04;;;;;;;5.15;4.85;;;10.70;99.90;;;;;;5085494;28;20048;-87
2023/12/18 00:14:30;;;;;;;4.68;4.40;;;10.70;99.90;;;;;;5086606;28;20043;-90
2023/12/18 00:16:56;;;;;;;5.15;4.85;;;10.70;99.90;;;;;;5070494;28;20043;-87
2023/12/18 00:19:21;;;;;;;4.15;3.95;;;10.70;99.90;;;;;;5069979;28;20047;-88
2023/12/18 00:21:47;;;;;;;5.15;4.85;;;10.70;99.90;;;;;;5081184;28;20043;-87
2023/12/18 00:24:13;;;;;;;4.70;4.40;;;10.70;99.90;;;;;;5065762;28;20046;-86
2023/12/18 00:26:38;;;;;;;4.20;4.00;;;10.70;99.90;;;;;;5068018;28;20539;-88
2023/12/18 00:29:04;;;;;;;5.05;4.75;;;10.70;99.90;;;;;;5071153;28;20043;-87
2023/12/18 00:31:30;;;;;;;4.10;3.90;;;10.70;99.90;;;;;;5085371;28;20071;-88
2023/12/18 00:33:56;;;;;;;5.00;4.70;;;10.70;99.90;;;;;;5068965;28;20054;-88
2023/12/18 00:36:21;;;;;;;4.82;4.53;;;10.70;99.90;;;;;;5065825;28;20549;-86
2023/12/18 00:38:47;;;;;;;4.88;4.57;;;10.70;99.90;;;;;;5089406;28;20053;-88
2023/12/18 00:41:13;;;;;;;4.60;4.35;;;10.80;99.90;;;;;;5065417;28;20788;-87
2023/12/18 00:43:38;;;;;;;4.78;4.47;;;10.80;99.90;;;;;;5086976;28;20040;-87
2023/12/18 00:46:05;;;;;;;4.10;3.90;;;10.80;99.90;;;;;;5066973;28;20086;-89
2023/12/18 00:48:31;;;;;;;4.50;4.30;;;10.80;99.90;;;;;;5088463;28;20058;-89
2023/12/18 00:50:56;;;;;;;4.93;4.63;;;10.80;99.90;;;;;;5070024;27;20497;-88
2023/12/18 00:53:22;;;;;;;4.18;3.97;;;10.80;99.90;;;;;;5069638;28;20134;-87
2023/12/18 00:55:48;;;;;;;5.10;4.80;;;10.80;99.90;;;;;;5069642;27;20069;-88
2023/12/18 00:58:13;;;;;;;4.38;4.18;;;10.80;99.90;;;;;;5088514;28;20047;-90
2023/12/18 01:00:39;;;;;;;4.10;3.90;;;10.80;99.90;;;;;;5087063;27;20047;-89
2023/12/18 01:03:05;;;;;;;4.30;4.10;;;10.80;99.90;;;;;;5069219;27;20047;-89
2023/12/18 01:05:31;;;;;;;5.25;4.95;;;10.80;99.90;;;;;;5071845;28;20049;-87
2023/12/18 01:07:57;;;;;;;4.68;4.38;;;10.80;99.90;;;;;;5085798;28;20051;-87
2023/12/18 01:10:23;;;;;;;4.32;4.13;;;10.80;99.90;;;;;;5087424;28;20056;-88
2023/12/18 01:12:49;;;;;;;4.75;4.45;;;10.80;99.90;;;;;;5085476;27;20177;-88
2023/12/18 01:15:15;;;;;;;5.18;4.88;;;10.80;99.90;;;;;;5083717;28;20130;-87
2023/12/18 01:17:40;;;;;;;4.00;3.80;;;10.90;99.90;;;;;;5069836;28;20039;-88
2023/12/18 01:20:07;;;;;;;4.00;3.80;;;10.80;99.90;;;;;;5084391;28;20077;-90
2023/12/18 01:22:32;;;;;;;4.95;4.65;;;10.80;99.90;;;;;;5068599;28;20036;-87
2023/12/18 01:24:58;;;;;;;4.45;4.25;;;10.90;99.90;;;;;;5083639;28;20036;-88
2023/12/18 01:27:25;;;;;;;4.65;4.35;;;10.80;99.90;;;;;;5086609;28;20047;-87
2023/12/18 01:29:51;;;;;;;4.10;3.90;;;10.90;99.90;;;;;;5083884;28;20068;-87
2023/12/18 01:32:16;;;;;;;3.95;3.75;;;10.90;99.90;;;;;;5084932;28;20035;-88
2023/12/18 01:34:42;;;;;;;4.43;4.22;;;10.90;99.90;;;;;;5063439;27;20055;-87
2023/12/18 01:37:08;;;;;;;3.80;3.60;;;10.90;99.90;;;;;;5067301;28;20073;-87
2023/12/18 01:39:34;;;;;;;4.10;3.90;;;10.80;99.90;;;;;;5083434;28;20123;-86
2023/12/18 01:42:00;;;;;;;3.97;3.78;;;10.80;99.90;;;;;;5087219;28;20485;-87
2023/12/18 01:44:26;;;;;;;4.15;3.95;;;10.80;99.90;;;;;;5069660;28;20092;-87
2023/12/18 01:46:52;;;;;;;4.25;4.05;;;10.80;99.90;;;;;;5070552;28;20062;-87
2023/12/18 01:49:18;;;;;;;4.10;3.90;;;10.80;99.90;;;;;;5070784;28;20078;-88
2023/12/18 01:51:45;;;;;;;4.78;4.47;;;10.80;99.90;;;;;;5069093;28;20048;-87
2023/12/18 01:54:11;;;;;;;4.00;3.80;;;10.80;99.90;;;;;;5085064;28;20673;-87
2023/12/18 01:56:39;;;;;;;4.57;4.32;;;10.80;99.90;;;;;;5068728;28;20148;-87
2023/12/18 01:59:06;;;;;;;4.70;4.40;;;10.80;99.90;;;;;;5084461;28;20064;-88
2023/12/18 02:01:32;;;;;;;4.30;4.10;;;10.80;99.90;;;;;;5069939;28;20114;-88
2023/12/18 02:03:58;;;;;;;4.43;4.22;;;10.90;99.90;;;;;;5082876;28;20123;-89
2023/12/18 02:06:24;;;;;;;4.05;3.85;;;10.90;99.90;;;;;;5071668;28;20130;-88
2023/12/18 02:08:50;;;;;;;4.30;4.10;;;10.90;99.90;;;;;;5070066;28;20147;-89
2023/12/18 02:11:16;;;;;;;4.72;4.43;;;10.90;99.90;;;;;;5075670;28;20552;-88
2023/12/18 02:13:42;;;;;;;3.72;3.53;;;10.80;99.90;;;;;;5068009;28;20048;-90
2023/12/18 02:16:08;;;;;;;4.07;3.88;;;10.90;99.90;;;;;;5069452;28;20071;-90
2023/12/18 02:18:34;;;;;;;4.00;3.80;;;10.90;99.90;;;;;;5067027;28;20051;-87
2023/12/18 02:21:00;;;;;;;4.07;3.88;;;10.90;99.90;;;;;;5085290;28;20039;-88
2023/12/18 02:23:25;;;;;;;4.70;4.40;;;10.90;99.90;;;;;;5071419;27;20497;-88
2023/12/18 02:25:51;;;;;;;4.00;3.80;;;11.00;99.90;;;;;;5070428;28;20047;-89
2023/12/18 02:28:17;;;;;;;4.03;3.83;;;10.90;99.90;;;;;;5082027;28;20047;-89
2023/12/18 02:30:43;;;;;;;4.82;4.53;;;10.90;99.90;;;;;;5086302;28;20059;-89
2023/12/18 02:33:09;;;;;;;4.00;3.80;;;10.90;99.90;;;;;;5086372;28;20043;-90
2023/12/18 02:35:35;;;;;;;3.83;3.63;;;11.00;99.90;;;;;;5087026;27;20042;-88
2023/12/18 02:38:01;;;;;;;4.10;3.90;;;10.90;99.90;;;;;;5067431;28;20098;-89
2023/12/18 02:40:27;;;;;;;4.70;4.40;;;10.90;99.90;;;;;;5070602;28;20040;-88
2023/12/18 02:42:53;;;;;;;4.40;4.20;;;10.90;99.90;;;;;;5072341;28;20059;-90
2023/12/18 02:45:19;;;;;;;4.60;4.35;;;10.90;99.90;;;;;;5073290;28;20043;-87
2023/12/18 02:47:45;;;;;;;4.30;4.10;;;10.90;99.90;;;;;;5089496;28;20071;-88
2023/12/18 02:50:11;;;;;;;4.90;4.60;;;10.90;99.90;;;;;;5086571;28;20144;-88
2023/12/18 02:52:36;;;;;;;4.80;4.50;;;10.90;99.90;;;;;;5088702;28;20052;-90
2023/12/18 02:55:02;;;;;;;4.32;4.13;;;10.90;99.90;;;;;;5069197;28;20432;-88
2023/12/18 02:57:28;;;;;;;4.65;4.40;;;10.90;99.90;;;;;;5088466;28;20043;-88
2023/12/18 02:59:54;;;;;;;4.30;4.10;;;11.00;99.90;;;;;;5067572;28;20649;-87
2023/12/18 03:02:20;;;;;;;4.20;4.00;;;10.90;99.90;;;;;;5071423;28;20549;-89
2023/12/18 03:04:46;;;;;;;4.45;4.22;;;10.90;99.90;;;;;;5061706;28;20040;-87
2023/12/18 03:07:12;;;;;;;4.10;3.90;;;11.00;99.90;;;;;;5081672;28;20488;-89
2023/12/18 03:09:37;;;;;;;4.53;4.30;;;10.90;99.90;;;;;;5069202;28;20043;-89
2023/12/18 03:12:04;;;;;;;4.03;3.83;;;11.00;99.90;;;;;;5087528;28;20056;-89
2023/12/18 03:14:30;;;;;;;6.15;5.65;;;11.00;99.90;;;;;;5085635;28;20140;-88
2023/12/18 03:16:55;;;;;;;4.70;4.40;;;11.00;99.90;;;;;;5087527;28;20083;-89
2023/12/18 03:19:21;;;;;;;4.20;4.00;;;11.00;99.90;;;;;;5073268;28;20040;-88
2023/12/18 03:21:47;;;;;;;4.03;3.83;;;11.00;99.90;;;;;;5068793;28;20043;-89
2023/12/18 03:24:13;;;;;;;4.93;4.63;;;10.90;99.90;;;;;;5088641;28;20410;-88
2023/12/18 03:26:39;;;;;;;3.95;3.75;;;10.90;99.90;;;;;;5070788;28;20497;-88
2023/12/18 03:29:05;;;;;;;4.10;3.90;;;10.90;99.90;;;;;;5071209;28;20052;-89
2023/12/18 03:31:30;;;;;;;4.93;4.63;;;10.90;99.90;;;;;;5085142;28;20145;-87
2023/12/18 03:33:56;;;;;;;4.80;4.50;;;10.90;99.90;;;;;;5068115;28;20066;-88
2023/12/18 03:36:22;;;;;;;4.20;4.00;;;10.90;99.90;;;;;;5069593;28;20122;-88
2023/12/18 03:38:48;;;;;;;4.13;3.92;;;10.90;99.90;;;;;;5089310;28;20192;-88
2023/12/18 03:41:14;;;;;;;3.85;3.65;;;10.90;99.90;;;;;;5071995;28;20044;-89
2023/12/18 03:43:40;;;;;;;4.40;4.20;;;10.80;99.90;;;;;;5069614;28;20093;-87
2023/12/18 03:46:06;;;;;;;3.90;3.70;;;10.80;99.90;;;;;;5086032;28;20099;-89
2023/12/18 03:48:32;;;;;;;4.30;4.10;;;10.80;99.90;;;;;;5069127;28;20043;-89
2023/12/18 03:51:00;;;;;;;3.72;3.53;;;10.90;99.90;;;;;;5070126;28;20043;-89
2023/12/18 03:53:26;;;;;;;4.30;4.10;;;10.80;99.90;;;;;;5069267;28;20050;-90
2023/12/18 03:55:52;;;;;;;4.13;3.92;;;10.80;99.90;;;;;;5071216;28;20052;-89
2023/12/18 03:58:18;;;;;;;4.10;3.90;;;10.80;99.90;;;;;;5089522;28;20047;-90
2023/12/18 04:00:44;;;;;;;4.10;3.90;;;10.80;99.90;;;;;;5072964;28;20048;-89
2023/12/18 04:03:09;;;;;;;4.13;3.92;;;10.80;99.90;;;;;;5072026;28;20036;-88
2023/12/18 04:05:35;;;;;;;4.80;4.50;;;10.80;99.90;;;;;;5090631;28;20047;-87
2023/12/18 04:08:01;;;;;;;5.07;4.78;;;10.70;99.90;;;;;;5091534;28;20047;-87
2023/12/18 04:10:27;;;;;;;4.13;3.92;;;10.70;99.90;;;;;;5077468;28;20040;-87
2023/12/18 04:12:54;;;;;;;4.10;3.90;;;10.70;99.90;;;;;;5069230;28;20047;-88
2023/12/18 04:15:19;;;;;;;4.72;4.43;;;10.70;99.90;;;;;;5087884;27;20036;-88
2023/12/18 04:17:45;;;;;;;4.38;4.18;;;10.70;99.90;;;;;;5071323;28;20124;-88
2023/12/18 04:20:11;;;;;;;4.15;3.95;;;10.70;99.90;;;;;;5083656;28;20100;-88
2023/12/18 04:22:37;;;;;;;4.88;4.57;;;10.70;99.90;;;;;;5078124;28;20043;-88
2023/12/18 04:25:03;;;;;;;3.90;3.70;;;10.70;99.90;;;;;;5072167;28;20040;-88
2023/12/18 04:27:29;;;;;;;4.25;4.05;;;10.70;99.90;;;;;;5074654;28;20059;-89
2023/12/18 04:29:54;;;;;;;4.22;4.03;;;10.70;99.90;;;;;;5087536;27;20050;-87
2023/12/18 04:32:20;;;;;;;4.25;4.05;;;10.70;99.90;;;;;;5090661;28;20072;-87
2023/12/18 04:34:46;;;;;;;4.43;4.22;;;10.80;99.90;;;;;;5070642;28;20044;-89
2023/12/18 04:37:11;;;;;;;3.95;3.75;;;10.70;99.90;;;;;;5089800;28;20039;-89
2023/12/18 04:39:37;;;;;;;4.88;4.57;;;10.70;99.90;;;;;;5073107;28;20039;-88
2023/12/18 04:42:03;;;;;;;4.20;4.00;;;10.80;99.90;;;;;;5088228;28;20110;-87
2023/12/18 04:44:29;;;;;;;4.93;4.63;;;10.70;99.90;;;;;;5088646;28;20400;-88
2023/12/18 04:46:55;;;;;;;4.10;3.90;;;10.80;99.90;;;;;;5071491;27;20054;-89
2023/12/18 04:49:21;;;;;;;4.20;4.00;;;10.80;99.90;;;;;;5090967;28;20053;-90
2023/12/18 04:51:49;;;;;;;4.82;4.53;;;10.70;99.90;;;;;;5089913;28;20056;-89
2023/12/18 04:54:15;;;;;;;4.30;4.10;;;10.70;99.90;;;;;;5073525;28;20035;-92
2023/12/18 04:56:41;;;;;;;4.00;3.80;;;10.70;99.90;;;;;;5090773;28;20050;-90
2023/12/18 04:59:07;;;;;;;4.95;4.65;;;10.80;99.90;;;;;;5070546;28;20047;-89
2023/12/18 05:01:32;;;;;;;5.20;4.90;;;10.70;99.90;;;;;;5091528;28;20044;-89
2023/12/18 05:03:58;;;;;;;4.85;4.55;;;10.70;99.90;;;;;;5087105;28;20126;-90
2023/12/18 05:06:26;;;;;;;4.00;3.80;;;10.70;99.90;;;;;;5088949;28;20073;-90
2023/12/18 05:08:52;;;;;;;4.10;3.90;;;10.70;99.90;;;;;;5072740;28;20236;-88
2023/12/18 05:11:23;;;;;;;4.20;4.00;;;10.70;99.90;;;;;;5080449;28;20048;-89
2023/12/18 05:13:49;;;;;;;4.50;4.30;;;10.80;99.90;;;;;;5073010;28;20799;-89
2023/12/18 05:16:15;;;;;;;4.80;4.50;;;10.80;99.90;;;;;;5071316;28;20197;-90
2023/12/18 05:18:41;;;;;;;3.80;3.60;;;10.70;99.90;;;;;;5071996;28;20794;-91
2023/12/18 05:21:07;;;;;;;4.10;3.90;;;10.70;99.90;;;;;;5070496;28;20047;-89
2023/12/18 05:23:33;;;;;;;4.28;4.07;;;10.80;99.90;;;;;;5069869;28;20039;-90
2023/12/18 05:25:59;;;;;;;5.55;5.25;;;10.80;99.90;;;;;;5068262;28;20044;-88
2023/12/18 05:28:28;;;;;;;4.80;4.50;;;10.80;99.90;;;;;;5087281;28;20077;-89
2023/12/18 05:30:53;;;;;;;5.05;4.75;;;10.90;99.90;;;;;;5070892;28;20044;-90
2023/12/18 05:33:19;;;;;;;4.32;4.13;;;10.80;99.90;;;;;;5089196;28;20075;-90
2023/12/18 05:35:45;;;;;;;4.22;4.03;;;10.90;99.90;;;;;;5072428;27;20106;-89
2023/12/18 05:38:11;;;;;;;4.00;3.80;;;10.90;99.90;;;;;;5069675;28;20139;-89
2023/12/18 05:40:37;;;;;;;4.90;4.60;;;10.80;99.90;;;;;;5072953;28;20047;-87
2023/12/18 05:43:04;;;;;;;3.65;3.45;;;10.80;99.90;;;;;;5063179;28;20043;-89
2023/12/18 05:45:31;;;;;;;5.03;4.72;;;10.90;99.90;;;;;;5087113;28;20538;-87
2023/12/18 05:47:57;;;;;;;3.90;3.70;;;10.90;99.90;;;;;;5068244;28;20032;-90
2023/12/18 05:50:23;;;;;;;4.45;4.25;;;10.90;99.90;;;;;;5069931;27;20110;-88
2023/12/18 05:52:49;;;;;;;4.40;4.20;;;10.90;99.90;;;;;;5089206;28;20044;-89
2023/12/18 05:55:14;;;;;;;4.45;4.25;;;10.90;99.90;;;;;;5070105;28;20046;-89
2023/12/18 05:57:41;;;;;;;4.88;4.57;;;10.90;99.90;;;;;;5088518;28;20493;-91
2023/12/18 06:00:08;;;;;;;4.30;4.10;;;10.90;99.90;;;;;;5070313;28;20047;-90
2023/12/18 06:02:33;;;;;;;4.80;4.50;;;11.00;99.90;;;;;;5083239;28;20056;-89
2023/12/18 06:05:00;;;;;;;4.95;4.65;;;10.90;99.90;;;;;;5086595;27;20043;-89
2023/12/18 06:07:25;;;;;;;4.30;4.10;;;10.90;99.90;;;;;;5084931;28;20278;-91
2023/12/18 06:09:51;;;;;;;4.82;4.53;;;11.00;99.90;;;;;;5087610;28;20109;-88
2023/12/18 06:12:17;;;;;;;4.30;4.10;;;10.90;99.90;;;;;;5086112;28;21672;-90
2023/12/18 06:14:43;;;;;;;4.82;4.53;;;10.90;99.90;;;;;;5069714;28;20071;-89
2023/12/18 06:17:11;;;;;;;4.32;4.13;;;11.00;99.90;;;;;;5086752;28;20072;-88
2023/12/18 06:19:38;;;;;;;4.32;4.13;;;11.00;99.90;;;;;;5086141;28;20080;-90
2023/12/18 06:22:04;;;;;;;4.40;4.20;;;10.90;99.90;;;;;;5072145;28;20051;-87
2023/12/18 06:24:30;;;;;;;4.80;4.50;;;10.90;99.90;;;;;;5070632;28;20086;-91
2023/12/18 06:26:56;;;;;;;4.30;4.10;;;11.00;99.90;;;;;;5072332;27;21297;-89
2023/12/18 06:29:22;;;;;;;5.10;4.85;;;11.00;99.90;;;;;;5071649;28;20373;-88
2023/12/18 06:31:48;;;;;;;4.30;4.10;;;11.00;99.90;;;;;;5071518;28;20059;-90
2023/12/18 06:34:14;;;;;;;4.93;4.63;;;11.00;99.90;;;;;;5065355;28;20046;-91
2023/12/18 06:36:39;;;;;;;4.05;3.85;;;11.00;99.90;;;;;;5083986;28;20040;-91
2023/12/18 06:39:05;;;;;;;4.03;3.83;;;11.00;99.90;;;;;;5070652;28;20487;-92
2023/12/18 06:41:31;;;;;;;4.20;4.00;;;11.00;99.90;;;;;;5068487;28;20499;-88
2023/12/18 06:43:57;;;;;;;4.22;4.03;;;11.00;99.90;;;;;;5088376;28;20440;-91
2023/12/18 06:46:22;;;;;;;4.20;4.00;;;11.00;99.90;;;;;;5066999;28;20066;-88
2023/12/18 06:48:48;;;;;;;4.55;4.35;;;11.00;99.90;;;;;;5068846;28;20162;-89
2023/12/18 06:51:16;;;;;;;4.00;3.80;;;11.00;99.90;;;;;;5086481;28;20039;-89
2023/12/18 06:53:41;;;;;;;4.70;4.40;;;11.00;99.90;;;;;;5084618;28;20035;-88
2023/12/18 06:56:08;;;;;;;4.85;4.55;;;11.00;99.90;;;;;;5089405;28;20601;-92
2023/12/18 06:58:34;;;;;;;4.03;3.83;;;11.00;99.90;;;;;;5071105;28;20047;-88
2023/12/18 07:01:00;;;;;;;4.40;4.20;;;10.90;99.90;;;;;;5070750;28;20122;-90
2023/12/18 07:03:26;;;;;;;4.75;4.45;;;11.00;99.90;;;;;;5069483;28;20036;-88
2023/12/18 07:05:51;;;;;;;4.20;4.00;;;11.00;99.90;;;;;;5069951;28;20047;-90
2023/12/18 07:08:17;;;;;;;4.10;3.90;;;10.90;99.90;;;;;;5067466;28;20040;-90
2023/12/18 07:10:43;;;;;;;4.30;4.10;;;11.00;99.90;;;;;;5070304;28;20067;-89
2023/12/18 07:13:08;;;;;;;4.43;4.22;;;11.00;99.90;;;;;;5087231;28;20048;-89
2023/12/18 07:15:34;;;;;;;4.80;4.50;;;11.00;99.90;;;;;;5086960;28;20073;-88
2023/12/18 07:18:00;;;;;;;4.72;4.43;;;11.00;99.90;;;;;;5088345;28;20523;-91
2023/12/18 07:20:26;;;;;;;4.35;4.15;;;10.90;99.90;;;;;;5068774;28;20044;-89
2023/12/18 07:22:52;;;;;;;4.35;4.15;;;10.90;99.90;;;;;;5087110;28;20046;-89
2023/12/18 07:25:18;;;;;;;4.80;4.50;;;11.00;99.90;;;;;;5083136;28;20048;-87
2023/12/18 07:27:44;;;;;;;5.03;4.72;;;11.00;99.90;;;;;;5071290;28;20053;-89
2023/12/18 07:30:11;;;;;;;4.20;4.00;;;11.00;99.90;;;;;;5070842;28;20497;-88
2023/12/18 07:32:37;;;;;;;4.70;4.40;;;11.10;99.90;;;;;;5081294;28;20048;-86
2023/12/18 07:35:04;;;;;;;4.93;4.63;;;11.00;99.90;;;;;;5070175;28;20051;-87
2023/12/18 07:37:30;;;;;;;4.30;4.10;;;11.00;99.90;;;;;;5068342;28;20055;-89
2023/12/18 07:39:57;;;;;;;5.22;4.93;;;11.00;99.90;;;;;;5090206;28;20733;-90
2023/12/18 07:42:23;;;;;;;5.05;4.75;;;11.00;99.90;;;;;;5092783;28;20104;-90
2023/12/18 07:44:48;;;;;;;4.10;3.90;;;11.00;99.90;;;;;;5073759;28;20091;-88
2023/12/18 07:47:15;;;;;;;4.82;4.53;;;11.00;99.90;;;;;;5090622;28;20044;-88
2023/12/18 07:49:41;;;;;;;4.03;3.83;;;11.00;99.90;;;;;;5092256;28;20047;-91
2023/12/18 07:52:06;;;;;;;4.30;4.10;;;11.00;99.90;;;;;;5075824;28;20058;-90
2023/12/18 07:54:32;;;;;;;4.72;4.43;;;11.10;99.90;;;;;;5070661;28;20724;-90
2023/12/18 07:56:58;;;;;;;4.53;4.30;;;11.00;99.90;;;;;;5075861;28;20070;-91
2023/12/18 07:59:24;;;;;;;4.25;4.05;;;11.00;99.90;;;;;;5072353;28;20054;-88
2023/12/18 08:01:49;;;;;;;4.10;3.90;;;11.00;99.90;;;;;;5089759;28;20050;-92
2023/12/18 08:04:15;;;;;;;4.82;4.53;;;11.00;99.90;;;;;;5080511;28;20501;-90
2023/12/18 08:06:41;;;;;;;3.90;3.70;;;11.00;99.90;;;;;;5072779;28;20114;-91
2023/12/18 08:09:07;;;;;;;4.07;3.88;;;11.10;99.90;;;;;;5090199;28;20047;-89
2023/12/18 08:11:33;;;;;;;4.00;3.80;;;11.00;99.90;;;;;;5071899;28;20132;-90
2023/12/18 08:14:00;;;;;;;4.50;4.30;;;11.10;99.90;;;;;;5089283;28;20056;-90
2023/12/18 08:16:26;;;;;;;4.50;4.30;;;11.10;99.90;;;;;;5073819;28;20200;-92
2023/12/18 08:18:51;;;;;;;4.43;4.22;;;11.10;99.90;;;;;;5068524;28;20043;-90
2023/12/18 08:21:17;;;;;;;4.22;4.03;;;11.10;99.90;;;;;;5088194;28;20048;-89
2023/12/18 08:23:46;;;;;;;4.00;3.80;;;11.20;99.90;;;;;;5085283;28;20105;-93
2023/12/18 08:26:12;;;;;;;4.38;4.18;;;11.10;99.90;;;;;;5067643;28;20047;-90
2023/12/18 08:28:42;;;;;;;3.75;3.55;;;11.10;99.90;;;;;;5072621;28;20039;-89
2023/12/18 08:31:08;;;;;;;4.30;4.10;;;11.20;99.90;;;;;;5081892;28;20051;-92
2023/12/18 08:33:33;;;;;;;4.10;3.90;;;11.20;99.90;;;;;;5072207;28;20455;-90
2023/12/18 08:35:59;;;;;;;4.85;4.55;;;11.20;99.90;;;;;;5074120;28;20039;-93
2023/12/18 08:38:26;;;;;;;4.40;4.20;;;11.20;99.90;;;;;;5074832;28;20649;-92
2023/12/18 08:40:52;;;;;;;4.38;4.18;;;11.20;99.90;;;;;;5072386;28;20040;-90
2023/12/18 08:43:26;;;;;;;4.75;4.45;;;11.30;99.90;;;;;;5087947;28;20059;-89
2023/12/18 08:45:52;;;;;;;4.28;4.07;;;11.30;99.90;;;;;;5072477;28;20039;-89
2023/12/18 08:48:18;;;;;;;4.20;4.00;;;11.30;99.90;;;;;;5074911;28;20039;-90
2023/12/18 08:50:44;;;;;;;4.60;4.30;;;11.20;99.90;;;;;;5072669;28;20044;-88
2023/12/18 08:53:10;;;;;;;3.95;3.75;;;11.30;99.90;;;;;;5076747;28;20047;-91
2023/12/18 08:55:39;;;;;;;4.07;3.88;;;11.30;99.90;;;;;;5083269;28;20085;-89
2023/12/18 08:58:08;;;;;;;4.03;3.83;;;11.40;99.90;;;;;;5073005;28;20056;-93
2023/12/18 09:00:35;;;;;;;4.50;4.28;;;11.30;99.90;;;;;;5087818;28;20043;-88
2023/12/18 09:03:01;;;;;;;4.50;4.28;;;11.30;99.90;;;;;;5084801;28;20117;-90
2023/12/18 09:05:27;;;;;;;4.38;4.18;;;11.30;99.90;;;;;;5067997;28;20052;-89
2023/12/18 09:07:53;;;;;;;3.55;3.35;;;11.30;99.90;;;;;;5066917;28;20111;-90
2023/12/18 09:10:22;;;;;;;4.15;3.95;;;11.40;99.90;;;;;;5071212;28;20501;-91
2023/12/18 09:12:48;;;;;;;4.03;3.83;;;11.40;99.90;;;;;;5092277;28;20100;-91
2023/12/18 09:15:14;;;;;;;4.20;4.00;;;11.40;99.90;;;;;;5072348;28;20043;-91
2023/12/18 09:17:40;;;;;;;4.05;3.85;;;11.40;99.90;;;;;;5070271;28;20042;-91
2023/12/18 09:20:07;;;;;;;4.35;4.15;;;11.40;99.90;;;;;;5068292;28;20124;-90
2023/12/18 09:22:32;;;;;;;3.72;3.53;;;11.50;99.90;;;;;;5085049;28;20153;-88
2023/12/18 09:24:58;;;;;;;3.70;3.50;;;11.50;99.90;;;;;;5069323;28;20461;-91
2023/12/18 09:27:24;;;;;;;4.65;4.35;;;11.60;99.90;;;;;;5069952;28;20048;-89
2023/12/18 09:29:52;;;;;;;3.55;3.35;;;11.60;99.90;;;;;;5070117;28;20661;-93
2023/12/18 09:32:18;;;;;;;3.80;3.60;;;11.50;99.90;;;;;;5069414;28;21243;-89
2023/12/18 09:34:43;;;;;;;4.25;4.05;;;11.50;99.90;;;;;;5088968;28;20067;-88
2023/12/18 09:37:12;;;;;;;13.57;9.48;;;11.60;99.90;;;;;;5073333;28;20085;-85
2023/12/18 09:39:41;;;;;;;4.38;4.18;;;11.50;99.90;;;;;;5070120;28;20130;-89
2023/12/18 09:42:09;;;;;;;3.80;3.60;;;11.50;99.90;;;;;;5090608;28;20148;-91
2023/12/18 09:44:36;;;;;;;4.30;4.10;;;11.50;99.90;;;;;;5087489;28;20481;-88
2023/12/18 09:47:03;;;;;;;3.80;3.60;;;11.60;99.90;;;;;;5086433;28;20386;-89
2023/12/18 09:49:29;;;;;;;3.65;3.45;;;11.60;99.90;;;;;;5072885;28;20036;-89
2023/12/18 09:52:02;;;;;;;14.30;6.90;;;11.60;99.90;;;;;;5089700;28;20050;-90
2023/12/18 09:54:30;;;;;;;3.60;3.40;;;11.50;99.90;;;;;;5067053;28;20043;-89
2023/12/18 09:56:57;;;;;;;3.63;3.42;;;11.50;99.90;;;;;;5073676;28;20090;-93
2023/12/18 09:59:23;;;;;;;3.67;3.47;;;11.60;99.90;;;;;;5073678;28;20040;-88
2023/12/18 10:01:50;;;;;;;4.20;4.00;;;11.50;99.90;;;;;;5072869;28;20043;-90
2023/12/18 10:04:16;;;;;;;4.15;3.95;;;11.60;99.90;;;;;;5075413;28;20561;-89
2023/12/18 10:06:42;;;;;;;4.00;3.80;;;11.50;99.90;;;;;;5068012;28;20039;-91
2023/12/18 10:09:13;;;;;;;3.65;3.45;;;11.50;99.90;;;;;;5072538;28;20044;-89
2023/12/18 10:11:40;;;;;;;3.88;3.67;;;11.60;99.90;;;;;;5070396;28;20075;-92
2023/12/18 10:14:06;;;;;;;3.63;3.42;;;11.50;99.90;;;;;;5084209;28;20042;-92
2023/12/18 10:16:32;;;;;;;3.70;3.50;;;11.50;99.90;;;;;;5074063;28;20040;-88
2023/12/18 10:18:58;;;;;;;4.03;3.83;;;11.50;99.90;;;;;;5070812;28;20047;-92
2023/12/18 10:21:27;;;;;;;3.50;3.30;;;11.50;99.90;;;;;;5073174;28;20524;-90
2023/12/18 10:23:53;;;;;;;3.83;3.63;;;11.50;99.90;;;;;;5089120;28;20052;-91
2023/12/18 10:26:20;;;;;;;3.60;3.40;;;11.50;99.90;;;;;;5069376;28;20529;-90
2023/12/18 10:28:48;;;;;;;4.10;3.90;;;11.50;99.90;;;;;;5068651;28;20051;-87
2023/12/18 10:31:14;;;;;;;4.20;4.00;;;11.60;99.90;;;;;;5064937;28;20058;-90
2023/12/18 10:33:41;;;;;;;3.63;3.42;;;11.50;99.90;;;;;;5086256;28;20039;-91
2023/12/18 10:36:09;;;;;;;3.50;3.30;;;11.50;99.90;;;;;;5084189;28;20144;-91
2023/12/18 10:38:38;;;;;;;4.05;3.85;;;11.50;99.90;;;;;;5071541;28;20493;-92
2023/12/18 10:41:04;;;;;;;3.80;3.60;;;11.60;99.90;;;;;;5071219;28;20044;-91
2023/12/18 10:43:35;;;;;;;3.50;3.30;;;11.60;99.90;;;;;;5073590;28;20046;-91
2023/12/18 10:46:03;;;;;;;3.70;3.50;;;11.60;99.90;;;;;;5072507;28;20654;-88
2023/12/18 10:48:29;;;;;;;3.70;3.50;;;11.70;99.90;;;;;;5086652;28;20047;-88
2023/12/18 10:50:56;;;;;;;3.83;3.63;;;11.70;99.90;;;;;;5070401;28;20042;-89
2023/12/18 10:53:23;;;;;;;3.90;3.70;;;11.70;99.90;;;;;;5069873;28;20044;-89
2023/12/18 10:55:50;;;;;;;4.00;3.80;;;11.70;99.90;;;;;;5085566;28;20047;-89
2023/12/18 10:58:20;;;;;;;4.00;3.80;;;11.60;99.90;;;;;;5086616;28;20405;-89
2023/12/18 11:00:46;;;;;;;3.90;3.70;;;11.70;99.90;;;;;;5087468;28;20118;-89
2023/12/18 11:03:13;;;;;;;3.80;3.60;;;11.60;99.90;;;;;;5087681;28;20047;-90
2023/12/18 11:05:41;;;;;;;3.95;3.75;;;11.70;99.90;;;;;;5074118;28;20562;-89
2023/12/18 11:08:07;;;;;;;3.63;3.42;;;11.60;99.90;;;;;;5071322;28;20042;-90
2023/12/18 11:10:33;;;;;;;3.90;3.70;;;11.60;99.90;;;;;;5086755;28;20122;-90
2023/12/18 11:13:14;;;;;;;3.85;3.65;;;11.60;99.90;;;;;;5070837;28;20052;-91
2023/12/18 11:16:06;;;;;;;3.80;3.60;;;11.60;99.90;;;;;;5071906;28;20054;-89
2023/12/18 11:18:49;;;;;;;3.95;3.75;;;11.70;99.90;;;;;;5055582;28;20101;-91
2023/12/18 11:21:14;;;;;;;3.72;3.53;;;11.70;99.90;;;;;;5073277;28;20508;-91
2023/12/18 11:23:40;;;;;;;4.05;3.85;;;11.70;99.90;;;;;;5071617;28;20051;-89
2023/12/18 11:26:10;;;;;;;4.00;3.80;;;11.70;99.90;;;;;;5086425;28;20047;-90
2023/12/18 11:28:36;;;;;;;3.72;3.53;;;11.70;99.90;;;;;;5088971;28;20048;-89
2023/12/18 11:31:05;;;;;;;3.50;3.30;;;11.70;99.90;;;;;;5087430;28;20067;-90
2023/12/18 11:33:31;;;;;;;4.13;3.92;;;11.80;99.90;;;;;;5073899;28;20635;-89
2023/12/18 11:35:57;;;;;;;4.30;4.10;;;11.70;99.90;;;;;;5087862;28;20069;-89
2023/12/18 11:38:24;;;;;;;3.80;3.60;;;11.80;99.90;;;;;;5070141;28;20077;-90
2023/12/18 11:40:55;;;;;;;3.60;3.40;;;11.80;99.90;;;;;;5070264;28;20389;-87
2023/12/18 11:43:45;;;;;;;4.03;3.83;;;11.80;99.90;;;;;;5087814;28;20055;-89
2023/12/18 11:46:13;;;;;;;3.50;3.30;;;11.90;99.90;;;;;;5085405;28;20054;-91
2023/12/18 11:48:40;;;;;;;3.55;3.35;;;11.90;99.90;;;;;;5088194;28;20515;-89
2023/12/18 11:51:06;;;;;;;3.70;3.50;;;11.90;99.90;;;;;;5087372;28;20043;-91
2023/12/18 11:53:35;;;;;;;3.90;3.70;;;11.90;99.90;;;;;;5064082;28;20077;-88
2023/12/18 11:56:08;;;;;;;3.47;3.28;;;12.00;99.90;;;;;;5080182;28;20069;-89
2023/12/18 11:58:38;;;;;;;4.00;3.80;;;12.00;99.90;;;;;;5065477;28;20075;-90
2023/12/18 12:01:05;;;;;;;3.35;3.15;;;12.10;99.90;;;;;;5067269;28;20063;-88
2023/12/18 12:03:34;;;;;;;3.50;3.30;;;12.10;99.90;;;;;;5068147;28;20050;-90
2023/12/18 12:06:02;;;;;;;3.95;3.75;;;12.10;99.90;;;;;;5083702;28;20044;-89
2023/12/18 12:08:27;;;;;;;4.15;3.95;;;12.10;99.90;;;;;;5072151;28;20131;-91
2023/12/18 12:10:55;;;;;;;3.65;3.45;;;12.20;99.90;;;;;;5070586;28;20695;-91
2023/12/18 12:13:25;;;;;;;3.85;3.65;;;12.20;99.90;;;;;;5067945;28;20135;-90
2023/12/18 12:15:55;;;;;;;4.25;4.05;;;12.20;99.90;;;;;;5071989;28;20504;-89
2023/12/18 12:18:22;;;;;;;4.63;4.35;;;12.20;99.90;;;;;;5089556;28;20040;-92
2023/12/18 12:20:48;;;;;;;3.88;3.67;;;12.10;99.90;;;;;;5070599;28;20462;-87
2023/12/18 12:23:14;;;;;;;4.28;4.07;;;12.10;99.90;;;;;;5087587;28;20051;-90
2023/12/18 12:25:40;;;;;;;4.20;4.00;;;12.00;99.90;;;;;;5080689;28;20481;-90
2023/12/18 12:28:06;;;;;;;3.33;3.13;;;12.10;99.90;;;;;;5088192;28;20621;-89
2023/12/18 12:30:33;;;;;;;4.47;4.28;;;12.10;99.90;;;;;;5072760;28;20122;-91
2023/12/18 12:32:59;;;;;;;3.35;3.15;;;12.10;99.90;;;;;;5072638;28;20279;-91
2023/12/18 12:35:25;;;;;;;4.28;4.07;;;12.00;99.90;;;;;;5072032;28;20040;-91
2023/12/18 12:37:51;;;;;;;4.25;4.05;;;12.10;99.90;;;;;;5075294;28;20123;-89
2023/12/18 12:40:16;;;;;;;4.07;3.88;;;12.00;99.90;;;;;;5090936;28;20123;-90
2023/12/18 12:42:43;;;;;;;3.42;3.22;;;12.00;99.90;;;;;;5073548;28;20070;-88
2023/12/18 12:45:11;;;;;;;3.53;3.33;;;12.10;99.90;;;;;;5073932;28;20039;-90